createdAt,value
2022-10-06T00:01:06.773Z,76.33
2022-10-06T00:03:33.765Z,76.27
2022-10-06T00:06:04.066Z,76.45
2022-10-06T00:08:32.241Z,76.16
2022-10-06T00:10:59.118Z,76.15
2022-10-06T00:13:26.461Z,75.99
2022-10-06T00:15:53.383Z,75.73
2022-10-06T00:18:20.290Z,75.95
2022-10-06T00:20:56.516Z,75.71
2022-10-06T00:23:23.931Z,75.61
2022-10-06T00:25:51.713Z,75.43
2022-10-06T00:28:18.824Z,75.63
2022-10-06T00:30:46.765Z,75.84
2022-10-06T00:33:16.181Z,75.59
2022-10-06T00:35:43.921Z,75.73
2022-10-06T00:38:15.301Z,75.65
2022-10-06T00:40:47.065Z,75.61
2022-10-06T00:43:40.383Z,75.34
2022-10-06T00:46:32.423Z,75.50
2022-10-06T00:49:08.898Z,75.41
2022-10-06T00:51:36.885Z,75.34
2022-10-06T00:54:03.864Z,75.25
2022-10-06T00:56:30.738Z,75.46
2022-10-06T00:58:57.635Z,75.21
2022-10-06T01:01:25.037Z,75.00
2022-10-06T01:04:00.851Z,74.85
2022-10-06T01:06:27.843Z,74.81
2022-10-06T01:08:54.720Z,74.82
2022-10-06T01:11:21.583Z,74.44
2022-10-06T01:13:48.528Z,74.39
2022-10-06T01:16:26.356Z,74.22
2022-10-06T01:18:54.775Z,74.06
2022-10-06T01:21:38.999Z,74.10
2022-10-06T01:24:05.911Z,73.76
2022-10-06T01:26:33.327Z,73.72
2022-10-06T01:29:00.199Z,73.62
2022-10-06T01:31:30.069Z,73.34
2022-10-06T01:33:59.218Z,73.50
2022-10-06T01:36:26.175Z,73.43
2022-10-06T01:38:53.110Z,73.27
2022-10-06T01:41:20.065Z,73.09
2022-10-06T01:43:47.054Z,73.33
2022-10-06T01:46:15.286Z,73.23
2022-10-06T01:48:42.247Z,72.83
2022-10-06T01:51:14.677Z,73.23
2022-10-06T01:53:41.917Z,72.98
2022-10-06T01:56:09.837Z,73.17
2022-10-06T01:58:36.773Z,73.04
2022-10-06T02:01:08.615Z,73.00
2022-10-06T02:03:39.759Z,72.86
2022-10-06T02:06:07.939Z,72.63
2022-10-06T02:08:35.089Z,72.55
2022-10-06T02:11:09.150Z,72.43
2022-10-06T02:13:37.870Z,72.46
2022-10-06T02:16:06.984Z,72.18
2022-10-06T02:18:34.720Z,72.05
2022-10-06T02:21:03.537Z,72.05
2022-10-06T02:23:31.096Z,72.24
2022-10-06T02:26:00.239Z,71.97
2022-10-06T02:28:30.401Z,71.91
2022-10-06T02:31:06.262Z,71.60
2022-10-06T02:33:33.711Z,71.91
2022-10-06T02:36:00.684Z,71.72
2022-10-06T02:38:28.590Z,71.91
2022-10-06T02:40:59.836Z,71.83
2022-10-06T02:43:31.448Z,71.91
2022-10-06T02:46:03.585Z,72.06
2022-10-06T02:48:31.774Z,72.08
2022-10-06T02:51:08.892Z,71.83
2022-10-06T02:53:36.764Z,71.86
2022-10-06T02:56:10.976Z,71.83
2022-10-06T02:58:39.955Z,72.08
2022-10-06T03:01:22.087Z,71.64
2022-10-06T03:03:50.319Z,71.67
2022-10-06T03:06:23.888Z,71.88
2022-10-06T03:08:59.793Z,71.85
2022-10-06T03:11:30.255Z,71.87
2022-10-06T03:13:59.921Z,71.71
2022-10-06T03:16:33.615Z,71.97
2022-10-06T03:19:01.745Z,71.86
2022-10-06T03:21:34.576Z,71.97
2022-10-06T03:24:01.834Z,71.87
2022-10-06T03:26:35.531Z,71.87
2022-10-06T03:29:03.914Z,71.89
2022-10-06T03:31:33.316Z,71.94
2022-10-06T03:34:00.504Z,72.10
2022-10-06T03:36:30.176Z,72.09
2022-10-06T03:38:57.165Z,72.06
2022-10-06T03:41:27.087Z,72.06
2022-10-06T03:43:55.614Z,72.05
2022-10-06T03:46:34.236Z,72.33
2022-10-06T03:49:01.684Z,72.23
2022-10-06T03:51:41.044Z,71.92
2022-10-06T03:54:10.835Z,72.13
2022-10-06T03:56:40.956Z,72.28
2022-10-06T03:59:11.107Z,72.45
2022-10-06T04:01:44.742Z,72.30
2022-10-06T04:04:12.862Z,72.28
2022-10-06T04:06:42.375Z,72.30
2022-10-06T04:09:15.267Z,72.58
2022-10-06T04:11:44.279Z,72.45
2022-10-06T04:14:15.410Z,72.33
2022-10-06T04:16:45.991Z,72.44
2022-10-06T04:19:14.376Z,72.60
2022-10-06T04:21:43.609Z,72.67
2022-10-06T04:24:11.794Z,72.59
2022-10-06T04:26:42.219Z,72.77
2022-10-06T04:29:09.169Z,72.63
2022-10-06T04:31:37.260Z,72.59
2022-10-06T04:34:04.851Z,72.91
2022-10-06T04:36:34.812Z,72.65
2022-10-06T04:39:03.360Z,72.83
2022-10-06T04:41:37.312Z,72.67
2022-10-06T04:44:05.074Z,72.84
2022-10-06T04:46:48.454Z,72.56
2022-10-06T04:49:19.934Z,72.58
2022-10-06T04:51:49.979Z,72.91
2022-10-06T04:54:17.327Z,72.73
2022-10-06T04:56:44.204Z,72.77
2022-10-06T04:59:11.075Z,72.91
2022-10-06T05:01:38.186Z,73.02
2022-10-06T05:04:06.229Z,72.96
2022-10-06T05:06:38.341Z,73.12
2022-10-06T05:09:15.528Z,73.06
2022-10-06T05:11:42.444Z,73.14
2022-10-06T05:14:09.514Z,73.21
2022-10-06T05:16:38.383Z,73.10
2022-10-06T05:19:05.543Z,73.23
2022-10-06T05:21:32.935Z,73.43
2022-10-06T05:24:00.114Z,73.38
2022-10-06T05:26:31.462Z,73.23
2022-10-06T05:28:58.491Z,73.39
2022-10-06T05:31:30.349Z,73.53
2022-10-06T05:33:58.247Z,73.49
2022-10-06T05:36:30.205Z,73.33
2022-10-06T05:38:57.682Z,73.59
2022-10-06T05:41:28.757Z,73.55
2022-10-06T05:43:58.234Z,73.61
2022-10-06T05:46:32.624Z,73.59
2022-10-06T05:49:04.440Z,73.74
2022-10-06T05:51:32.788Z,73.85
2022-10-06T05:54:00.537Z,73.53
2022-10-06T05:56:28.948Z,73.91
2022-10-06T05:58:57.231Z,73.91
2022-10-06T06:01:25.952Z,73.95
2022-10-06T06:04:00.916Z,74.02
2022-10-06T06:06:33.032Z,73.96
2022-10-06T06:09:09.793Z,74.04
2022-10-06T06:11:38.719Z,74.20
2022-10-06T06:14:07.688Z,74.08
2022-10-06T06:16:35.988Z,74.34
2022-10-06T06:19:03.176Z,74.24
2022-10-06T06:21:30.083Z,74.26
2022-10-06T06:23:57.298Z,74.33
2022-10-06T06:26:26.068Z,74.49
2022-10-06T06:28:54.570Z,74.41
2022-10-06T06:31:27.218Z,74.23
2022-10-06T06:33:56.550Z,74.47
2022-10-06T06:36:36.979Z,74.50
2022-10-06T06:39:06.760Z,74.23
2022-10-06T06:41:37.676Z,74.31
2022-10-06T06:44:06.846Z,74.42
2022-10-06T06:49:22.068Z,74.40
2022-10-06T06:51:49.988Z,74.47
2022-10-06T06:54:18.977Z,74.46
2022-10-06T06:56:46.642Z,74.45
2022-10-06T06:59:13.683Z,74.60
2022-10-06T07:01:44.485Z,74.71
2022-10-06T07:04:12.849Z,74.83
2022-10-06T07:06:40.553Z,74.76
2022-10-06T07:09:08.155Z,74.75
2022-10-06T07:11:38.556Z,74.98
2022-10-06T07:14:09.905Z,75.00
2022-10-06T07:16:55.461Z,74.91
2022-10-06T07:20:01.178Z,75.21
2022-10-06T07:23:06.761Z,74.90
2022-10-06T07:25:33.634Z,75.06
2022-10-06T07:28:00.574Z,75.17
2022-10-06T07:30:28.514Z,75.25
2022-10-06T07:32:55.684Z,75.25
2022-10-06T07:35:24.024Z,75.28
2022-10-06T07:37:53.248Z,75.48
2022-10-06T07:40:20.230Z,75.42
2022-10-06T07:42:52.067Z,75.32
2022-10-06T07:45:41.593Z,75.40
2022-10-06T07:48:11.424Z,75.13
2022-10-06T07:50:39.311Z,75.31
2022-10-06T07:53:16.245Z,75.34
2022-10-06T07:55:45.425Z,75.18
2022-10-06T07:58:15.136Z,74.78
2022-10-06T08:00:42.925Z,74.76
2022-10-06T08:03:11.230Z,74.61
2022-10-06T08:05:39.287Z,74.17
2022-10-06T08:08:06.617Z,74.29
2022-10-06T08:10:33.566Z,73.95
2022-10-06T08:13:01.324Z,73.66
2022-10-06T08:15:28.222Z,73.57
2022-10-06T08:17:55.097Z,73.33
2022-10-06T08:20:24.256Z,73.07
2022-10-06T08:22:51.213Z,72.86
2022-10-06T08:25:18.292Z,72.56
2022-10-06T08:27:46.494Z,72.09
2022-10-06T08:30:14.911Z,72.26
2022-10-06T08:32:43.326Z,72.39
2022-10-06T08:35:10.910Z,72.11
2022-10-06T08:37:37.812Z,71.63
2022-10-06T08:40:06.151Z,71.59
2022-10-06T08:42:43.636Z,71.38
2022-10-06T08:45:38.667Z,70.67
2022-10-06T08:48:20.172Z,70.31
2022-10-06T08:51:07.622Z,70.07
2022-10-06T08:53:39.494Z,70.47
2022-10-06T08:56:17.974Z,69.98
2022-10-06T08:58:44.700Z,70.23
2022-10-06T09:01:23.593Z,69.78
2022-10-06T09:03:52.576Z,69.71
2022-10-06T09:06:42.594Z,69.57
2022-10-06T09:09:30.610Z,68.60
2022-10-06T09:12:04.066Z,68.33
2022-10-06T09:14:37.612Z,68.51
2022-10-06T09:17:08.213Z,67.93
2022-10-06T09:20:07.314Z,67.94
2022-10-06T09:22:34.209Z,67.66
2022-10-06T09:25:20.876Z,67.46
2022-10-06T09:27:52.487Z,67.15
2022-10-06T09:30:19.439Z,67.58
2022-10-06T09:32:48.076Z,67.39
2022-10-06T09:35:23.086Z,67.55
2022-10-06T09:38:08.320Z,66.56
2022-10-06T09:40:40.367Z,66.14
2022-10-06T09:43:26.197Z,66.21
2022-10-06T09:45:54.863Z,65.61
2022-10-06T09:48:25.112Z,65.66
2022-10-06T09:51:17.200Z,65.42
2022-10-06T09:53:44.980Z,65.46
2022-10-06T09:56:20.524Z,65.13
2022-10-06T09:58:58.701Z,65.16
2022-10-06T10:01:29.976Z,65.51
2022-10-06T10:04:20.558Z,65.46
2022-10-06T10:06:47.508Z,65.61
2022-10-06T10:09:20.631Z,65.73
2022-10-06T10:12:26.513Z,65.09
2022-10-06T10:14:59.307Z,65.35
2022-10-06T10:17:29.075Z,65.38
2022-10-06T10:19:56.451Z,65.32
2022-10-06T10:22:27.307Z,65.01
2022-10-06T10:25:06.367Z,64.82
2022-10-06T10:27:52.262Z,64.38
2022-10-06T10:30:19.184Z,64.17
2022-10-06T10:33:11.375Z,64.34
2022-10-06T10:35:42.888Z,64.34
2022-10-06T10:38:20.666Z,64.03
2022-10-06T10:40:49.060Z,63.56
2022-10-06T10:43:38.208Z,63.37
2022-10-06T10:46:27.303Z,62.58
2022-10-06T10:48:56.075Z,62.58
2022-10-06T10:51:33.161Z,62.48
2022-10-06T10:54:15.039Z,62.42
2022-10-06T10:56:41.916Z,62.04
2022-10-06T10:59:26.980Z,61.85
2022-10-06T11:02:03.220Z,61.49
2022-10-06T11:04:30.133Z,61.70
2022-10-06T11:07:23.380Z,61.32
2022-10-06T11:09:53.062Z,61.13
2022-10-06T11:12:29.836Z,60.93
2022-10-06T11:15:12.887Z,60.58
2022-10-06T11:17:47.105Z,59.83
2022-10-06T11:20:42.763Z,59.75
2022-10-06T11:23:38.058Z,60.12
2022-10-06T11:26:30.015Z,59.65
2022-10-06T11:29:32.518Z,59.61
2022-10-06T11:32:21.685Z,59.34
2022-10-06T11:34:49.924Z,59.12
2022-10-06T11:37:25.747Z,58.92
2022-10-06T11:40:10.683Z,58.92
2022-10-06T11:42:41.766Z,59.07
2022-10-06T11:45:16.470Z,59.01
2022-10-06T11:48:10.316Z,59.55
2022-10-06T11:50:37.674Z,59.09
2022-10-06T11:53:05.750Z,58.67
2022-10-06T11:55:32.771Z,58.58
2022-10-06T11:58:23.397Z,57.89
2022-10-06T12:00:53.284Z,58.29
2022-10-06T12:03:34.476Z,58.68
2022-10-06T12:06:03.321Z,58.88
2022-10-06T12:08:37.736Z,58.41
2022-10-06T12:11:43.100Z,58.19
2022-10-06T12:17:22.711Z,57.67
2022-10-06T12:20:16.698Z,57.08
2022-10-06T12:22:46.314Z,57.59
2022-10-06T12:25:26.815Z,57.79
2022-10-06T12:28:31.175Z,57.71
2022-10-06T12:31:30.276Z,57.30
2022-10-06T12:33:57.177Z,57.46
2022-10-06T12:36:29.284Z,56.84
2022-10-06T12:39:05.487Z,56.33
2022-10-06T12:41:57.906Z,56.23
2022-10-06T12:44:25.742Z,56.21
2022-10-06T12:46:53.067Z,56.06
2022-10-06T12:49:32.037Z,56.39
2022-10-06T12:52:00.670Z,55.87
2022-10-06T12:54:36.157Z,55.51
2022-10-06T12:57:16.025Z,55.28
2022-10-06T12:59:42.923Z,55.50
2022-10-06T13:02:24.035Z,55.24
2022-10-06T13:05:01.020Z,55.10
2022-10-06T13:07:30.256Z,54.82
2022-10-06T13:10:15.408Z,54.60
2022-10-06T13:12:46.774Z,54.78
2022-10-06T13:18:07.782Z,55.29
2022-10-06T13:20:41.950Z,55.19
2022-10-06T13:23:10.442Z,54.53
2022-10-06T13:25:53.794Z,54.72
2022-10-06T13:28:35.816Z,54.85
2022-10-06T13:31:22.891Z,54.39
2022-10-06T13:34:00.166Z,54.26
2022-10-06T13:36:35.353Z,54.91
2022-10-06T13:39:05.962Z,54.64
2022-10-06T13:41:36.132Z,54.13
2022-10-06T13:44:12.213Z,53.95
2022-10-06T13:46:40.604Z,54.27
2022-10-06T13:49:33.548Z,54.12
2022-10-06T13:52:10.128Z,54.01
2022-10-06T13:54:59.047Z,53.69
2022-10-06T13:57:38.157Z,53.73
2022-10-06T14:00:17.128Z,53.92
2022-10-06T14:02:46.092Z,53.73
2022-10-06T14:05:29.518Z,54.17
2022-10-06T14:08:22.087Z,54.35
2022-10-06T14:10:55.773Z,53.85
2022-10-06T14:13:29.963Z,53.90
2022-10-06T14:16:00.893Z,53.84
2022-10-06T14:18:45.180Z,53.96
2022-10-06T14:21:34.164Z,54.48
2022-10-06T14:24:06.049Z,54.33
2022-10-06T14:26:36.296Z,53.79
2022-10-06T14:29:03.660Z,54.09
2022-10-06T14:31:34.163Z,54.11
2022-10-06T14:34:01.864Z,54.22
2022-10-06T14:36:30.443Z,53.68
2022-10-06T14:38:58.210Z,53.86
2022-10-06T14:41:29.431Z,53.49
2022-10-06T14:44:15.880Z,53.48
2022-10-06T14:46:44.123Z,53.57
2022-10-06T14:49:13.421Z,53.04
2022-10-06T14:51:41.646Z,53.66
2022-10-06T14:54:10.557Z,54.02
2022-10-06T14:56:39.095Z,53.90
2022-10-06T14:59:07.770Z,54.27
2022-10-06T15:01:36.223Z,53.80
2022-10-06T15:04:09.351Z,54.32
2022-10-06T15:06:54.899Z,53.96
2022-10-06T15:09:21.873Z,54.65
2022-10-06T15:11:48.779Z,54.53
2022-10-06T15:14:15.766Z,54.14
2022-10-06T15:16:44.522Z,53.67
2022-10-06T15:19:14.552Z,54.25
2022-10-06T15:21:45.354Z,54.20
2022-10-06T15:24:14.823Z,53.41
2022-10-06T15:27:00.768Z,53.49
2022-10-06T15:29:27.904Z,53.51
2022-10-06T15:31:56.290Z,53.55
2022-10-06T15:34:27.816Z,53.53
2022-10-06T15:36:55.536Z,53.85
2022-10-06T15:39:24.729Z,53.66
2022-10-06T15:41:51.802Z,53.88
2022-10-06T15:44:19.740Z,53.89
2022-10-06T15:46:49.298Z,53.62
2022-10-06T15:49:19.912Z,53.73
2022-10-06T15:51:50.023Z,54.04
2022-10-06T15:54:22.680Z,53.95
2022-10-06T15:56:57.225Z,53.86
2022-10-06T15:59:26.695Z,53.34
2022-10-06T16:02:01.526Z,53.45
2022-10-06T16:04:39.388Z,53.47
2022-10-06T16:07:17.169Z,53.10
2022-10-06T16:09:45.368Z,52.90
2022-10-06T16:12:16.373Z,53.18
2022-10-06T16:14:43.661Z,53.08
2022-10-06T16:17:11.072Z,53.30
2022-10-06T16:19:38.044Z,53.73
2022-10-06T16:22:06.744Z,53.64
2022-10-06T16:24:33.667Z,53.80
2022-10-06T16:27:00.544Z,54.10
2022-10-06T16:29:28.112Z,54.28
2022-10-06T16:31:55.139Z,54.33
2022-10-06T16:34:22.573Z,54.44
2022-10-06T16:36:50.905Z,55.11
2022-10-06T16:39:19.670Z,54.81
2022-10-06T16:41:47.100Z,54.93
2022-10-06T16:44:14.147Z,55.38
2022-10-06T16:46:41.071Z,55.31
2022-10-06T16:49:09.202Z,55.47
2022-10-06T16:51:41.135Z,55.62
2022-10-06T16:54:10.379Z,55.79
2022-10-06T16:56:41.388Z,55.73
2022-10-06T16:59:11.909Z,55.86
2022-10-06T17:01:39.028Z,55.70
2022-10-06T17:04:14.021Z,56.22
2022-10-06T17:06:43.437Z,55.67
2022-10-06T17:09:14.113Z,55.91
2022-10-06T17:11:42.453Z,55.90
2022-10-06T17:14:09.330Z,55.96
2022-10-06T17:16:40.776Z,55.86
2022-10-06T17:19:07.988Z,55.87
2022-10-06T17:21:55.763Z,55.74
2022-10-06T17:24:23.113Z,56.24
2022-10-06T17:26:53.184Z,55.88
2022-10-06T17:29:22.150Z,55.80
2022-10-06T17:31:50.747Z,55.97
2022-10-06T17:34:26.541Z,56.26
2022-10-06T17:36:57.546Z,56.71
2022-10-06T17:39:24.641Z,56.73
2022-10-06T17:41:53.600Z,56.56
2022-10-06T17:44:24.240Z,56.90
2022-10-06T17:46:55.221Z,57.07
2022-10-06T17:49:24.176Z,57.18
2022-10-06T17:51:53.732Z,57.70
2022-10-06T17:54:23.676Z,57.67
2022-10-06T17:56:54.226Z,57.69
2022-10-06T17:59:28.484Z,57.54
2022-10-06T18:01:56.946Z,57.75
2022-10-06T18:04:24.267Z,57.89
2022-10-06T18:06:53.067Z,58.02
2022-10-06T18:09:20.184Z,58.19
2022-10-06T18:11:57.849Z,58.14
2022-10-06T18:14:26.430Z,58.28
2022-10-06T18:16:56.754Z,58.28
2022-10-06T18:19:26.617Z,58.41
2022-10-06T18:21:54.648Z,58.98
2022-10-06T18:24:22.922Z,58.72
2022-10-06T18:26:53.085Z,58.53
2022-10-06T18:29:22.056Z,58.99
2022-10-06T18:31:50.686Z,59.22
2022-10-06T18:37:04.863Z,59.71
2022-10-06T18:39:33.454Z,59.53
2022-10-06T18:42:03.058Z,59.73
2022-10-06T18:44:48.338Z,59.91
2022-10-06T18:47:33.883Z,60.15
2022-10-06T18:50:00.804Z,60.46
2022-10-06T18:52:27.675Z,60.42
2022-10-06T18:54:54.552Z,60.50
2022-10-06T18:57:26.509Z,60.78
2022-10-06T18:59:55.186Z,60.95
2022-10-06T19:02:22.269Z,61.02
2022-10-06T19:04:49.349Z,61.23
2022-10-06T19:07:16.241Z,61.17
2022-10-06T19:09:46.563Z,61.00
2022-10-06T19:12:14.102Z,61.48
2022-10-06T19:14:47.344Z,61.48
2022-10-06T19:17:15.187Z,61.53
2022-10-06T19:19:44.228Z,61.76
2022-10-06T19:22:12.736Z,61.60
2022-10-06T19:24:41.853Z,61.68
2022-10-06T19:27:11.382Z,61.57
2022-10-06T19:29:45.934Z,61.67
2022-10-06T19:32:18.518Z,61.88
2022-10-06T19:34:47.021Z,62.12
2022-10-06T19:37:14.321Z,62.01
2022-10-06T19:39:43.165Z,62.24
2022-10-06T19:42:33.107Z,62.37
2022-10-06T19:45:00.203Z,62.28
2022-10-06T19:47:27.417Z,62.54
2022-10-06T19:49:59.700Z,62.48
2022-10-06T19:52:31.110Z,62.51
2022-10-06T19:54:58.040Z,62.61
2022-10-06T19:57:28.550Z,63.20
2022-10-06T19:59:58.727Z,63.22
2022-10-06T20:02:28.012Z,63.08
2022-10-06T20:04:54.953Z,63.32
2022-10-06T20:07:25.497Z,63.65
2022-10-06T20:09:52.474Z,63.21
2022-10-06T20:12:24.323Z,63.40
2022-10-06T20:14:53.304Z,63.56
2022-10-06T20:17:20.856Z,63.51
2022-10-06T20:19:47.904Z,63.55
2022-10-06T20:22:14.857Z,63.73
2022-10-06T20:24:41.829Z,63.63
2022-10-06T20:27:09.107Z,63.69
2022-10-06T20:29:36.421Z,63.71
2022-10-06T20:32:05.345Z,64.07
2022-10-06T20:34:33.058Z,63.79
2022-10-06T20:37:02.629Z,64.19
2022-10-06T20:39:53.495Z,63.86
2022-10-06T20:42:22.606Z,63.98
2022-10-06T20:44:49.833Z,64.16
2022-10-06T20:47:16.868Z,64.28
2022-10-06T20:49:44.585Z,64.23
2022-10-06T20:52:14.962Z,64.17
2022-10-06T20:54:42.115Z,64.43
2022-10-06T20:57:09.774Z,64.12
2022-10-06T20:59:37.473Z,64.35
2022-10-06T21:02:05.923Z,64.42
2022-10-06T21:04:33.882Z,64.31
2022-10-06T21:07:01.782Z,64.55
2022-10-06T21:09:29.356Z,64.40
2022-10-06T21:11:59.388Z,64.46
2022-10-06T21:14:26.609Z,64.84
2022-10-06T21:16:53.675Z,64.82
2022-10-06T21:19:20.702Z,64.67
2022-10-06T21:21:53.444Z,64.76
2022-10-06T21:24:20.740Z,64.95
2022-10-06T21:26:48.452Z,64.80
2022-10-06T21:29:16.246Z,64.68
2022-10-06T21:31:44.770Z,64.92
2022-10-06T21:34:14.330Z,65.06
2022-10-06T21:36:43.505Z,65.08
2022-10-06T21:39:11.125Z,65.28
2022-10-06T21:41:41.367Z,65.05
2022-10-06T21:44:13.001Z,65.30
2022-10-06T21:46:42.473Z,65.07
2022-10-06T21:49:11.065Z,65.29
2022-10-06T21:51:38.378Z,65.47
2022-10-06T21:54:05.529Z,65.54
2022-10-06T21:56:33.300Z,65.61
2022-10-06T21:59:00.357Z,65.77
2022-10-06T22:01:29.260Z,65.95
2022-10-06T22:04:02.955Z,65.77
2022-10-06T22:06:31.298Z,65.94
2022-10-06T22:08:59.445Z,66.11
2022-10-06T22:11:31.434Z,66.01
2022-10-06T22:14:00.265Z,65.99
2022-10-06T22:16:29.624Z,66.02
2022-10-06T22:18:56.794Z,66.07
2022-10-06T22:21:29.026Z,66.21
2022-10-06T22:24:00.641Z,66.22
2022-10-06T22:26:30.955Z,66.47
2022-10-06T22:28:58.412Z,66.40
2022-10-06T22:31:26.823Z,66.50
2022-10-06T22:33:56.317Z,66.37
2022-10-06T22:36:23.450Z,66.47
2022-10-06T22:38:50.660Z,66.62
2022-10-06T22:41:18.552Z,66.72
2022-10-06T22:43:45.598Z,66.86
2022-10-06T22:46:12.835Z,66.82
2022-10-06T22:48:40.025Z,66.97
2022-10-06T22:51:07.056Z,67.04
2022-10-06T22:53:34.366Z,66.77
2022-10-06T22:56:02.081Z,67.04
2022-10-06T22:58:28.995Z,67.01
2022-10-06T23:00:56.076Z,67.19
2022-10-06T23:03:23.333Z,67.18
2022-10-06T23:05:57.118Z,67.36
2022-10-06T23:08:24.433Z,67.29
2022-10-06T23:10:51.541Z,67.49
2022-10-06T23:13:18.519Z,67.58
2022-10-06T23:15:45.655Z,67.81
2022-10-06T23:18:12.616Z,67.60
2022-10-06T23:20:39.734Z,67.65
2022-10-06T23:23:06.685Z,67.66
2022-10-06T23:25:37.578Z,67.76
2022-10-06T23:28:04.647Z,68.11
2022-10-06T23:30:31.600Z,68.04
2022-10-06T23:32:58.506Z,68.25
2022-10-06T23:35:25.451Z,68.24
2022-10-06T23:37:52.407Z,68.13
2022-10-06T23:40:21.049Z,68.05
2022-10-06T23:42:47.955Z,68.19
2022-10-06T23:45:14.875Z,68.26
2022-10-06T23:47:42.142Z,68.47
2022-10-06T23:50:10.037Z,68.53
2022-10-06T23:52:37.395Z,68.63
2022-10-06T23:55:04.571Z,68.55
2022-10-06T23:57:31.493Z,68.60
2022-10-06T23:59:58.409Z,68.73
